weather June 16, 2001 (JST)

@

Glasgow 2001/06/16 01:20 UTC

EGPF 160120Z 07015KT 9999 DZ BKN010 10/08 Q1008

Nice 2001/06/16 03:00 UTC

LFMN 160300Z 09008KT 9999 BKN012 20/17 Q1013 NOSIG


6/17 forecast for Glasgow

6/17 forecast for Nice

Ads by TOK2